createdAt,value
2023-05-15T00:01:12.631Z,79.70
2023-05-15T00:04:14.680Z,78.83
2023-05-15T00:07:16.634Z,79.73
2023-05-15T00:10:18.499Z,81.50
2023-05-15T00:13:20.449Z,79.74
2023-05-15T00:16:22.368Z,78.16
2023-05-15T00:19:24.435Z,77.31
2023-05-15T00:22:26.422Z,76.69
2023-05-15T00:25:28.515Z,74.92
2023-05-15T00:28:30.656Z,75.14
2023-05-15T00:31:33.605Z,75.87
2023-05-15T00:34:38.078Z,73.87
2023-05-15T00:37:40.253Z,73.84
2023-05-15T00:40:42.708Z,79.40
2023-05-15T00:43:44.545Z,80.69
2023-05-15T00:46:46.828Z,79.41
2023-05-15T00:49:49.377Z,80.32
2023-05-15T00:52:51.309Z,81.34
2023-05-15T00:55:54.913Z,80.40
2023-05-15T00:58:56.806Z,78.08
2023-05-15T01:01:58.673Z,78.64
2023-05-15T01:05:00.879Z,77.59
2023-05-15T01:08:18.154Z,80.71
2023-05-15T01:11:20.070Z,80.38
2023-05-15T01:14:21.917Z,79.60
2023-05-15T01:17:23.787Z,81.79
2023-05-15T01:20:25.837Z,82.12
2023-05-15T01:23:33.876Z,79.14
2023-05-15T01:26:41.760Z,76.69
2023-05-15T01:29:56.613Z,78.71
2023-05-15T01:33:17.483Z,81.60
2023-05-15T01:36:22.028Z,82.02
2023-05-15T01:39:26.179Z,81.43
2023-05-15T01:42:30.831Z,83.40
2023-05-15T01:45:32.809Z,77.50
2023-05-15T01:48:36.346Z,78.43
2023-05-15T01:51:38.150Z,80.02
2023-05-15T01:54:40.281Z,83.51
2023-05-15T01:57:42.386Z,80.13
2023-05-15T02:00:44.384Z,77.49
2023-05-15T02:03:46.744Z,77.31
2023-05-15T02:06:50.358Z,81.42
2023-05-15T02:09:53.159Z,79.36
2023-05-15T02:12:55.071Z,80.71
2023-05-15T02:15:57.136Z,77.27
2023-05-15T02:18:59.018Z,78.48
2023-05-15T02:22:00.974Z,79.47
2023-05-15T02:25:02.955Z,75.41
2023-05-15T02:28:04.895Z,72.87
2023-05-15T02:31:08.850Z,80.10
2023-05-15T02:34:31.024Z,76.17
2023-05-15T02:37:34.237Z,74.53
2023-05-15T02:40:36.511Z,73.82
2023-05-15T02:43:38.468Z,75.33
2023-05-15T02:46:41.526Z,76.57
2023-05-15T02:49:43.383Z,80.17
2023-05-15T02:52:45.371Z,82.32
2023-05-15T02:55:47.260Z,80.49
2023-05-15T02:58:49.731Z,78.51
2023-05-15T03:01:51.626Z,80.35
2023-05-15T03:04:54.403Z,82.06
2023-05-15T03:07:57.235Z,82.47
2023-05-15T03:10:59.346Z,78.71
2023-05-15T03:14:01.207Z,76.33
2023-05-15T03:17:03.590Z,78.28
2023-05-15T03:20:05.938Z,77.85
2023-05-15T03:23:07.759Z,75.32
2023-05-15T03:26:09.631Z,75.82
2023-05-15T03:29:11.531Z,77.24
2023-05-15T03:32:13.486Z,76.33
2023-05-15T03:35:15.378Z,75.73
2023-05-15T03:38:19.405Z,72.03
2023-05-15T03:41:21.520Z,72.05
2023-05-15T03:44:23.412Z,79.99
2023-05-15T03:47:25.476Z,74.23
2023-05-15T03:50:27.450Z,75.59
2023-05-15T03:53:29.321Z,80.06
2023-05-15T03:56:31.866Z,78.10
2023-05-15T03:59:33.858Z,76.40
2023-05-15T04:02:36.079Z,72.79
2023-05-15T04:05:37.997Z,75.92
2023-05-15T04:08:40.993Z,79.37
2023-05-15T04:11:44.055Z,78.86
2023-05-15T04:14:45.855Z,77.72
2023-05-15T04:17:48.327Z,74.98
2023-05-15T04:20:50.320Z,78.32
2023-05-15T04:23:52.254Z,77.66
2023-05-15T04:26:54.238Z,81.90
2023-05-15T04:30:01.660Z,82.32
2023-05-15T04:33:03.726Z,80.35
2023-05-15T04:36:09.835Z,81.97
2023-05-15T04:39:12.638Z,81.38
2023-05-15T04:42:14.471Z,81.08
2023-05-15T04:45:16.450Z,77.30
2023-05-15T04:48:19.283Z,77.98
2023-05-15T04:51:21.174Z,77.38
2023-05-15T04:54:23.130Z,74.96
2023-05-15T04:57:26.033Z,71.30
2023-05-15T05:00:28.444Z,74.09
2023-05-15T05:03:30.436Z,76.31
2023-05-15T05:06:32.296Z,77.82
2023-05-15T05:09:34.630Z,81.84
2023-05-15T05:12:36.655Z,80.66
2023-05-15T05:15:38.576Z,82.38
2023-05-15T05:18:40.936Z,80.44
2023-05-15T05:21:42.813Z,82.14
2023-05-15T05:24:44.734Z,81.58
2023-05-15T05:27:46.601Z,80.63
2023-05-15T05:30:48.668Z,82.16
2023-05-15T05:33:52.814Z,79.33
2023-05-15T05:36:54.843Z,80.35
2023-05-15T05:39:56.978Z,80.54
2023-05-15T05:43:00.333Z,78.09
2023-05-15T05:46:02.493Z,80.07
2023-05-15T05:49:04.486Z,75.58
2023-05-15T05:52:09.412Z,74.83
2023-05-15T05:55:11.594Z,79.70
2023-05-15T05:58:18.362Z,76.47
2023-05-15T06:01:27.013Z,75.40
2023-05-15T06:04:29.614Z,77.12
2023-05-15T06:07:31.702Z,76.11
2023-05-15T06:10:33.725Z,71.68
2023-05-15T06:13:36.057Z,68.81
2023-05-15T06:16:38.038Z,75.18
2023-05-15T06:19:40.372Z,70.44
2023-05-15T06:22:42.576Z,70.26
2023-05-15T06:25:44.773Z,73.37
2023-05-15T06:28:46.708Z,73.92
2023-05-15T06:31:48.667Z,71.02
2023-05-15T06:34:50.836Z,68.79
2023-05-15T06:37:56.596Z,71.75
2023-05-15T06:41:00.520Z,66.94
2023-05-15T06:44:02.449Z,69.67
2023-05-15T06:47:06.010Z,69.92
2023-05-15T06:50:08.206Z,70.28
2023-05-15T06:53:11.333Z,65.86
2023-05-15T06:56:14.301Z,63.34
2023-05-15T06:59:16.193Z,62.77
2023-05-15T07:02:18.157Z,69.40
2023-05-15T07:05:21.866Z,67.26
2023-05-15T07:08:23.999Z,69.26
2023-05-15T07:11:26.164Z,68.56
2023-05-15T07:14:28.846Z,64.12
2023-05-15T07:17:31.884Z,61.89
2023-05-15T07:20:36.378Z,66.49
2023-05-15T07:23:38.839Z,62.20
2023-05-15T07:26:50.289Z,58.41
2023-05-15T07:29:59.277Z,59.65
2023-05-15T07:33:01.491Z,59.63
2023-05-15T07:36:04.208Z,61.19
2023-05-15T07:39:06.163Z,66.87
2023-05-15T07:42:13.961Z,66.17
2023-05-15T07:45:16.872Z,63.05
2023-05-15T07:48:21.371Z,62.75
2023-05-15T07:51:26.281Z,62.84
2023-05-15T07:54:28.341Z,58.99
2023-05-15T07:57:31.920Z,65.23
2023-05-15T08:00:34.009Z,62.83
2023-05-15T08:03:36.503Z,62.53
2023-05-15T08:06:44.414Z,63.50
2023-05-15T08:09:46.477Z,58.54
2023-05-15T08:12:51.923Z,57.46
2023-05-15T08:15:54.038Z,53.68
2023-05-15T08:19:01.503Z,50.44
2023-05-15T08:22:03.670Z,52.18
2023-05-15T08:25:07.129Z,55.91
2023-05-15T08:28:09.007Z,52.88
2023-05-15T08:31:11.294Z,50.33
2023-05-15T08:34:13.247Z,49.69
2023-05-15T08:37:15.137Z,55.19
2023-05-15T08:40:25.625Z,57.55
2023-05-15T08:43:37.243Z,55.31
2023-05-15T08:46:39.247Z,57.23
2023-05-15T08:50:01.023Z,54.44
2023-05-15T08:53:02.904Z,59.80
2023-05-15T08:56:04.944Z,60.07
2023-05-15T08:59:06.982Z,58.44
2023-05-15T09:02:09.029Z,57.82
2023-05-15T09:05:11.479Z,59.55
2023-05-15T09:08:13.438Z,57.05
2023-05-15T09:11:16.069Z,57.15
2023-05-15T09:14:18.589Z,56.76
2023-05-15T09:17:21.141Z,57.28
2023-05-15T09:20:33.594Z,59.06
2023-05-15T09:23:35.602Z,57.11
2023-05-15T09:26:41.294Z,52.24
2023-05-15T09:29:43.142Z,57.65
2023-05-15T09:32:45.222Z,55.70
2023-05-15T09:35:47.512Z,51.19
2023-05-15T09:38:49.868Z,52.79
2023-05-15T09:41:52.163Z,50.22
2023-05-15T09:44:54.036Z,47.18
2023-05-15T09:47:57.786Z,50.01
2023-05-15T09:50:59.839Z,48.93
2023-05-15T09:54:01.919Z,46.66
2023-05-15T09:57:10.508Z,45.60
2023-05-15T10:00:14.997Z,48.73
2023-05-15T10:03:19.092Z,45.75
2023-05-15T10:06:21.319Z,44.03
2023-05-15T10:09:23.299Z,47.08
2023-05-15T10:12:25.500Z,47.64
2023-05-15T10:15:30.392Z,47.04
2023-05-15T10:18:33.146Z,48.47
2023-05-15T10:21:36.422Z,49.27
2023-05-15T10:24:40.860Z,48.28
2023-05-15T10:27:43.283Z,52.17
2023-05-15T10:30:45.244Z,48.30
2023-05-15T10:33:55.927Z,48.07
2023-05-15T10:37:00.956Z,49.03
2023-05-15T10:40:02.984Z,53.55
2023-05-15T10:43:05.678Z,54.18
2023-05-15T10:46:07.604Z,50.76
2023-05-15T10:49:12.814Z,50.40
2023-05-15T10:52:18.017Z,50.78
2023-05-15T10:55:20.807Z,49.27
2023-05-15T10:58:23.330Z,45.96
2023-05-15T11:01:29.234Z,47.69
2023-05-15T11:04:31.732Z,45.31
2023-05-15T11:07:33.961Z,46.62
2023-05-15T11:10:39.469Z,45.40
2023-05-15T11:14:00.695Z,46.40
2023-05-15T11:17:06.938Z,47.08
2023-05-15T11:20:09.438Z,44.45
2023-05-15T11:23:13.682Z,43.45
2023-05-15T11:26:17.814Z,41.67
2023-05-15T11:29:19.800Z,39.59
2023-05-15T11:32:40.745Z,43.48
2023-05-15T11:35:43.316Z,43.17
2023-05-15T11:38:45.403Z,40.35
2023-05-15T11:41:49.501Z,41.39
2023-05-15T11:44:51.469Z,45.32
2023-05-15T11:47:53.470Z,44.64
2023-05-15T11:50:55.477Z,44.18
2023-05-15T11:53:57.689Z,45.34
2023-05-15T11:56:59.769Z,40.74
2023-05-15T12:00:01.840Z,42.73
2023-05-15T12:03:04.152Z,44.46
2023-05-15T12:06:09.015Z,43.66
2023-05-15T12:09:15.044Z,45.35
2023-05-15T12:12:17.632Z,46.84
2023-05-15T12:15:20.062Z,45.02
2023-05-15T12:18:22.407Z,45.45
2023-05-15T12:21:28.682Z,44.76
2023-05-15T12:24:30.814Z,45.38
2023-05-15T12:27:32.780Z,47.83
2023-05-15T12:30:37.418Z,44.53
2023-05-15T12:33:39.309Z,47.98
2023-05-15T12:36:41.670Z,44.63
2023-05-15T12:39:50.865Z,47.46
2023-05-15T12:42:56.569Z,44.54
2023-05-15T12:45:58.664Z,44.32
2023-05-15T12:49:01.106Z,47.77
2023-05-15T12:52:10.028Z,47.92
2023-05-15T12:55:15.781Z,48.44
2023-05-15T12:58:19.380Z,50.82
2023-05-15T13:01:21.982Z,51.65
2023-05-15T13:04:24.268Z,52.27
2023-05-15T13:07:26.560Z,50.66
2023-05-15T13:10:29.079Z,51.79
2023-05-15T13:14:00.724Z,51.46
2023-05-15T13:17:03.377Z,52.17
2023-05-15T13:20:06.087Z,51.09
2023-05-15T13:23:08.381Z,49.15
2023-05-15T13:26:10.464Z,50.42
2023-05-15T13:29:12.733Z,50.70
2023-05-15T13:32:14.851Z,49.80
2023-05-15T13:35:17.436Z,50.25
2023-05-15T13:38:19.278Z,49.95
2023-05-15T13:41:21.273Z,50.37
2023-05-15T13:44:23.185Z,51.09
2023-05-15T13:47:29.300Z,48.10
2023-05-15T13:50:31.278Z,50.63
2023-05-15T13:53:33.258Z,52.19
2023-05-15T13:56:35.460Z,52.77
2023-05-15T13:59:37.543Z,51.36
2023-05-15T14:02:40.108Z,50.00
2023-05-15T14:05:42.477Z,49.97
2023-05-15T14:08:46.637Z,48.87
2023-05-15T14:12:40.802Z,51.27
2023-05-15T14:15:43.317Z,50.19
2023-05-15T14:18:45.880Z,50.54
2023-05-15T14:21:48.105Z,52.51
2023-05-15T14:24:50.725Z,54.14
2023-05-15T14:27:53.147Z,52.78
2023-05-15T14:30:55.519Z,54.01
2023-05-15T14:33:59.230Z,51.08
2023-05-15T14:37:01.284Z,50.87
2023-05-15T14:40:05.231Z,50.63
2023-05-15T14:43:07.706Z,51.00
2023-05-15T14:46:11.403Z,49.48
2023-05-15T14:49:20.234Z,51.29
2023-05-15T14:52:24.662Z,51.00
2023-05-15T14:55:27.162Z,50.36
2023-05-15T14:58:29.317Z,51.11
2023-05-15T15:01:31.448Z,53.20
2023-05-15T15:04:36.217Z,54.74
2023-05-15T15:07:58.516Z,56.88
2023-05-15T15:11:01.976Z,57.20
2023-05-15T15:14:04.082Z,57.69
2023-05-15T15:17:08.184Z,59.10
2023-05-15T15:20:11.676Z,60.24
2023-05-15T15:23:13.738Z,58.21
2023-05-15T15:26:18.652Z,58.76
2023-05-15T15:29:20.628Z,58.43
2023-05-15T15:32:22.901Z,59.14
2023-05-15T15:35:25.837Z,57.70
2023-05-15T15:38:28.695Z,55.95
2023-05-15T15:41:33.103Z,57.62
2023-05-15T15:44:35.127Z,55.64
2023-05-15T15:47:37.225Z,57.70
2023-05-15T15:50:41.356Z,58.68
2023-05-15T15:53:43.368Z,54.38
2023-05-15T15:56:45.835Z,55.89
2023-05-15T15:59:48.197Z,52.67
2023-05-15T16:02:50.939Z,53.67
2023-05-15T16:05:52.967Z,52.95
2023-05-15T16:08:55.102Z,51.43
2023-05-15T16:11:57.720Z,51.97
2023-05-15T16:15:06.878Z,52.89
2023-05-15T16:18:15.802Z,51.74
2023-05-15T16:21:17.752Z,52.10
2023-05-15T16:24:19.684Z,51.81
2023-05-15T16:27:21.819Z,53.48
2023-05-15T16:30:33.446Z,50.39
2023-05-15T16:33:46.552Z,51.47
2023-05-15T16:36:49.939Z,52.48
2023-05-15T16:39:51.995Z,51.90
2023-05-15T16:42:54.256Z,51.64
2023-05-15T16:45:56.512Z,49.65
2023-05-15T16:48:58.536Z,47.96
2023-05-15T16:52:00.569Z,49.77
2023-05-15T16:55:03.506Z,49.05
2023-05-15T16:58:05.729Z,50.66
2023-05-15T17:01:09.944Z,49.87
2023-05-15T17:04:12.105Z,51.77
2023-05-15T17:07:14.233Z,52.43
2023-05-15T17:10:16.239Z,52.41
2023-05-15T17:13:18.237Z,50.27
2023-05-15T17:16:20.238Z,52.26
2023-05-15T17:19:22.280Z,49.97
2023-05-15T17:22:24.358Z,49.85
2023-05-15T17:25:26.665Z,49.96
2023-05-15T17:28:28.777Z,50.49
2023-05-15T17:31:30.861Z,52.89
2023-05-15T17:34:32.934Z,50.14
2023-05-15T17:37:34.913Z,49.07
2023-05-15T17:40:36.803Z,48.78
2023-05-15T17:43:41.017Z,49.01
2023-05-15T17:46:43.307Z,49.28
2023-05-15T17:49:45.578Z,49.44
2023-05-15T17:52:47.648Z,49.49
2023-05-15T17:55:49.556Z,49.10
2023-05-15T17:58:51.481Z,48.93
2023-05-15T18:01:53.369Z,48.91
2023-05-15T18:04:56.297Z,50.55
2023-05-15T18:07:59.672Z,49.64
2023-05-15T18:11:08.541Z,49.20
2023-05-15T18:14:16.190Z,51.98
2023-05-15T18:17:18.187Z,52.79
2023-05-15T18:20:20.106Z,51.90
2023-05-15T18:23:22.087Z,50.50
2023-05-15T18:26:25.818Z,50.18
2023-05-15T18:29:27.814Z,51.00
2023-05-15T18:32:29.797Z,50.54
2023-05-15T18:35:32.095Z,51.43
2023-05-15T18:38:34.003Z,51.52
2023-05-15T18:41:35.851Z,51.28
2023-05-15T18:44:37.757Z,49.60
2023-05-15T18:47:40.090Z,49.24
2023-05-15T18:50:42.165Z,49.17
2023-05-15T18:53:44.111Z,49.44
2023-05-15T18:56:46.221Z,51.29
2023-05-15T18:59:48.205Z,50.58
2023-05-15T19:02:50.362Z,50.76
2023-05-15T19:05:52.569Z,52.27
2023-05-15T19:08:54.500Z,54.36
2023-05-15T19:11:56.422Z,54.18
2023-05-15T19:14:58.809Z,54.23
2023-05-15T19:18:00.942Z,53.93
2023-05-15T19:21:03.038Z,55.24
2023-05-15T19:24:08.099Z,55.98
2023-05-15T19:27:09.997Z,55.53
2023-05-15T19:30:12.154Z,55.75
2023-05-15T19:33:15.704Z,55.12
2023-05-15T19:36:18.731Z,56.71
2023-05-15T19:39:20.693Z,55.02
2023-05-15T19:42:26.258Z,55.50
2023-05-15T19:45:29.600Z,55.70
2023-05-15T19:48:31.638Z,56.76
2023-05-15T19:51:34.475Z,55.71
2023-05-15T19:54:36.354Z,55.78
2023-05-15T19:57:40.181Z,57.48
2023-05-15T20:00:42.078Z,58.55
2023-05-15T20:03:44.457Z,58.54
2023-05-15T20:06:46.463Z,56.85
2023-05-15T20:09:48.424Z,56.30
2023-05-15T20:12:50.415Z,56.33
2023-05-15T20:15:56.944Z,55.17
2023-05-15T20:18:59.978Z,54.81
2023-05-15T20:22:02.036Z,54.54
2023-05-15T20:25:04.025Z,55.86
2023-05-15T20:28:06.186Z,57.23
2023-05-15T20:31:08.083Z,57.01
2023-05-15T20:34:10.126Z,56.93
2023-05-15T20:37:13.355Z,57.66
2023-05-15T20:40:15.906Z,56.38
2023-05-15T20:43:17.823Z,56.96
2023-05-15T20:46:21.624Z,56.15
2023-05-15T20:49:23.660Z,55.23
2023-05-15T20:52:25.579Z,57.03
2023-05-15T20:55:27.633Z,58.96
2023-05-15T20:58:29.572Z,57.26
2023-05-15T21:01:31.588Z,59.01
2023-05-15T21:04:33.728Z,60.92
2023-05-15T21:07:35.973Z,59.09
2023-05-15T21:10:38.032Z,58.17
2023-05-15T21:13:39.969Z,57.81
2023-05-15T21:16:41.981Z,59.88
2023-05-15T21:19:43.917Z,60.29
2023-05-15T21:22:45.916Z,59.05
2023-05-15T21:25:47.798Z,59.75
2023-05-15T21:28:49.796Z,61.52
2023-05-15T21:31:51.748Z,60.24
2023-05-15T21:34:53.723Z,60.05
2023-05-15T21:37:55.771Z,62.73
2023-05-15T21:40:57.923Z,63.86
2023-05-15T21:43:59.756Z,61.85
2023-05-15T21:47:01.738Z,60.42
2023-05-15T21:50:03.980Z,60.21
2023-05-15T21:53:06.014Z,60.28
2023-05-15T21:56:08.542Z,60.62
2023-05-15T21:59:11.432Z,61.84
2023-05-15T22:02:13.537Z,63.01
2023-05-15T22:05:16.139Z,64.21
2023-05-15T22:08:18.470Z,62.67
2023-05-15T22:11:20.787Z,59.58
2023-05-15T22:14:23.026Z,60.63
2023-05-15T22:17:27.160Z,58.47
2023-05-15T22:20:29.255Z,61.65
2023-05-15T22:23:32.294Z,61.16
2023-05-15T22:26:34.606Z,62.98
2023-05-15T22:29:36.459Z,63.35
2023-05-15T22:32:38.570Z,63.80
2023-05-15T22:35:40.509Z,59.30
2023-05-15T22:38:52.798Z,59.06
2023-05-15T22:41:54.731Z,58.58
2023-05-15T22:45:01.611Z,60.48
2023-05-15T22:48:03.870Z,60.36
2023-05-15T22:51:11.582Z,61.74
2023-05-15T22:54:13.583Z,63.98
2023-05-15T22:57:18.538Z,61.98
2023-05-15T23:00:20.508Z,65.79
2023-05-15T23:03:24.352Z,67.26
2023-05-15T23:06:26.471Z,67.25
2023-05-15T23:09:28.405Z,66.18
2023-05-15T23:12:30.922Z,66.08
2023-05-15T23:15:32.957Z,66.88
2023-05-15T23:18:35.273Z,69.01
2023-05-15T23:21:37.967Z,67.53
2023-05-15T23:24:39.926Z,66.78
2023-05-15T23:27:41.942Z,69.32
2023-05-15T23:30:43.946Z,64.91
2023-05-15T23:33:48.084Z,64.15
2023-05-15T23:36:50.353Z,66.53
2023-05-15T23:39:55.258Z,67.02
2023-05-15T23:42:57.157Z,63.35
2023-05-15T23:45:59.073Z,63.65
2023-05-15T23:49:01.111Z,63.19
2023-05-15T23:52:02.976Z,63.25
2023-05-15T23:55:05.229Z,67.69
2023-05-15T23:58:07.226Z,69.51
